Time;durP1;ratioP1;P1;durP2;ratioP2;P2;SDS_P1;SDS_P2;PMS_P1;PMS_P2;Temp;Humidity;BMP_temperature;BMP_pressure;BME280_temperature;BME280_humidity;BME280_pressure;Samples;Min_cycle;Max_cycle;Signal;HPM_P1;HPM_P2
2023/02/14 00:02:02;;;;;;;;;;;;;;;-0.26;100.00;98250.13;5075992;28;19956;-76
2023/02/14 00:04:28;;;;;;;;;;;;;;;-0.25;100.00;98252.63;5075796;28;20001;-76
2023/02/14 00:06:54;;;;;;;;;;;;;;;-0.25;100.00;98241.47;5094444;28;19957;-75
2023/02/14 00:09:21;;;;;;;;;;;;;;;-0.25;100.00;98239.72;5075858;28;19961;-76
2023/02/14 00:11:47;;;;;;;;;;;;;;;-0.24;100.00;98241.34;5094096;28;19955;-74
2023/02/14 00:16:58;;;;;;;;;;;;;;;-0.26;100.00;98238.06;5093908;28;20296;-77
2023/02/14 00:19:24;;;;;;;;;;;;;;;-0.24;100.00;98236.19;5093895;28;19993;-75
2023/02/14 00:21:50;;;;;;;;;;;;;;;-0.24;100.00;98238.78;5094083;28;19961;-76
2023/02/14 00:24:17;;;;;;;;;;;;;;;-0.27;100.00;98236.44;5093807;28;19948;-75
2023/02/14 00:26:43;;;;;;;;;;;;;;;-0.27;100.00;98231.28;5094068;28;19950;-77
2023/02/14 00:29:11;;;;;;;;;;;;;;;-0.25;100.00;98228.59;5092842;28;19955;-76
2023/02/14 00:31:37;;;;;;;;;;;;;;;-0.23;100.00;98230.13;5075626;28;19942;-75
2023/02/14 00:34:03;;;;;;;;;;;;;;;-0.21;100.00;98227.41;5093979;28;19965;-75
2023/02/14 00:36:29;;;;;;;;;;;;;;;-0.21;100.00;98223.13;5075435;28;19959;-75
2023/02/14 00:38:55;;;;;;;;;;;;;;;-0.19;100.00;98212.66;5075651;28;19948;-75
2023/02/14 00:41:21;;;;;;;;;;;;;;;-0.18;100.00;98216.91;5093547;28;20383;-75
2023/02/14 00:43:48;;;;;;;;;;;;;;;-0.21;100.00;98219.69;5093587;28;19988;-75
2023/02/14 00:46:14;;;;;;;;;;;;;;;-0.23;100.00;98219.81;5093595;28;19964;-76
2023/02/14 00:48:41;;;;;;;;;;;;;;;-0.24;100.00;98213.00;5093454;28;19950;-76
2023/02/14 00:51:07;;;;;;;;;;;;;;;-0.26;100.00;98212.28;5093567;28;19960;-75
2023/02/14 00:53:33;;;;;;;;;;;;;;;-0.28;100.00;98219.28;5093686;28;19956;-75
2023/02/14 00:55:59;;;;;;;;;;;;;;;-0.31;100.00;98216.13;5093510;28;20032;-76
2023/02/14 00:58:24;;;;;;;;;;;;;;;-0.41;100.00;98221.88;5075333;28;20026;-76
2023/02/14 01:00:51;;;;;;;;;;;;;;;-0.50;100.00;98209.66;5093291;28;19963;-76
2023/02/14 01:03:17;;;;;;;;;;;;;;;-0.52;100.00;98223.56;5093292;28;19948;-75
2023/02/14 01:05:42;;;;;;;;;;;;;;;-0.57;100.00;98225.63;5093335;28;20014;-76
2023/02/14 01:08:08;;;;;;;;;;;;;;;-0.57;100.00;98225.63;5058812;28;19973;-76
2023/02/14 01:10:37;;;;;;;;;;;;;;;-0.54;100.00;98228.81;5093241;28;19952;-75
2023/02/14 01:13:03;;;;;;;;;;;;;;;-0.52;100.00;98213.25;5092920;28;19976;-77
2023/02/14 01:15:30;;;;;;;;;;;;;;;-0.48;100.00;98227.59;5093365;28;20413;-75
2023/02/14 01:17:56;;;;;;;;;;;;;;;-0.49;100.00;98224.16;5092761;28;19952;-76
2023/02/14 01:20:22;;;;;;;;;;;;;;;-0.47;100.00;98222.31;5092951;28;20319;-76
2023/02/14 01:22:48;;;;;;;;;;;;;;;-0.48;100.00;98225.00;5093080;28;19958;-76
2023/02/14 01:25:14;;;;;;;;;;;;;;;-0.50;100.00;98217.38;5093387;28;19954;-76
2023/02/14 01:27:40;;;;;;;;;;;;;;;-0.50;100.00;98216.56;5093231;28;19954;-76
2023/02/14 01:30:07;;;;;;;;;;;;;;;-0.50;100.00;98216.56;5093072;28;20065;-76
2023/02/14 01:32:33;;;;;;;;;;;;;;;-0.51;100.00;98217.47;5074808;28;19960;-75
2023/02/14 01:34:59;;;;;;;;;;;;;;;-0.52;100.00;98210.69;5092764;28;19970;-75
2023/02/14 01:37:24;;;;;;;;;;;;;;;-0.52;100.00;98208.09;5093057;28;19943;-76
2023/02/14 01:39:50;;;;;;;;;;;;;;;-0.52;100.00;98208.09;5094248;28;19957;-75
2023/02/14 01:42:16;;;;;;;;;;;;;;;-0.52;100.00;98214.06;5096354;28;19976;-74
2023/02/14 01:44:48;;;;;;;;;;;;;;;-0.51;100.00;98212.31;5096335;28;19977;-75
2023/02/14 01:47:15;;;;;;;;;;;;;;;-0.53;100.00;98211.59;5097130;28;19969;-74
2023/02/14 01:49:44;;;;;;;;;;;;;;;-0.56;100.00;98206.66;5078264;28;19947;-75
2023/02/14 01:52:18;;;;;;;;;;;;;;;-0.57;100.00;98205.00;5096348;28;19945;-75
2023/02/14 01:54:57;;;;;;;;;;;;;;;-0.60;100.00;98213.75;5096298;28;19970;-76
2023/02/14 01:57:25;;;;;;;;;;;;;;;-0.61;100.00;98204.38;5096019;28;19947;-75
2023/02/14 01:59:54;;;;;;;;;;;;;;;-0.62;100.00;98211.28;5096392;28;19947;-76
2023/02/14 02:02:22;;;;;;;;;;;;;;;-0.62;100.00;98213.06;5096261;28;19956;-76
2023/02/14 02:04:49;;;;;;;;;;;;;;;-0.64;100.00;98220.88;5078530;28;19976;-76
2023/02/14 02:07:18;;;;;;;;;;;;;;;-0.65;100.00;98215.81;5096088;28;20333;-76
2023/02/14 02:09:53;;;;;;;;;;;;;;;-0.67;100.00;98215.13;5096230;28;19950;-75
2023/02/14 02:12:19;;;;;;;;;;;;;;;-0.69;100.00;98209.25;5080247;28;19947;-75
2023/02/14 02:14:45;;;;;;;;;;;;;;;-0.72;100.00;98202.53;5096088;28;19981;-75
2023/02/14 02:17:12;;;;;;;;;;;;;;;-0.75;100.00;98205.31;5095855;28;20441;-75
2023/02/14 02:19:47;;;;;;;;;;;;;;;-0.76;100.00;98208.00;5096113;28;19953;-75
2023/02/14 02:22:28;;;;;;;;;;;;;;;-0.80;100.00;98201.41;5065915;28;19941;-76
2023/02/14 02:25:01;;;;;;;;;;;;;;;-0.83;100.00;98202.44;5078054;28;19948;-74
2023/02/14 02:27:37;;;;;;;;;;;;;;;-0.86;100.00;98197.47;5095608;28;19946;-75
2023/02/14 02:30:03;;;;;;;;;;;;;;;-0.89;100.00;98198.50;5095806;28;19950;-75
2023/02/14 02:32:48;;;;;;;;;;;;;;;-0.92;100.00;98200.50;5077505;28;20330;-75
2023/02/14 02:35:23;;;;;;;;;;;;;;;-0.95;100.00;98205.81;5095512;28;19971;-75
2023/02/14 02:37:58;;;;;;;;;;;;;;;-0.98;100.00;98196.56;5095417;28;20324;-75
2023/02/14 02:40:27;;;;;;;;;;;;;;;-1.02;100.00;98195.94;5095524;28;19953;-75
2023/02/14 02:42:59;;;;;;;;;;;;;;;-1.05;100.00;98195.31;5095436;28;19976;-76
2023/02/14 02:45:34;;;;;;;;;;;;;;;-1.08;100.00;98198.91;5083447;28;19945;-75
2023/02/14 02:48:14;;;;;;;;;;;;;;;-1.11;100.00;98201.69;5080736;28;19955;-75
2023/02/14 02:53:32;;;;;;;;;;;;;;;-1.18;99.96;98192.72;5095127;28;19946;-75
2023/02/14 02:58:54;;;;;;;;;;;;;;;-1.25;99.56;98192.28;5095307;28;19953;-75
2023/02/14 03:01:22;;;;;;;;;;;;;;;-1.27;99.34;98198.47;5095170;28;20341;-74
2023/02/14 03:06:36;;;;;;;;;;;;;;;-1.35;99.00;98191.25;5095676;28;19940;-74
2023/02/14 03:09:12;;;;;;;;;;;;;;;-1.39;98.85;98196.69;5095247;28;20313;-74
2023/02/14 03:11:45;;;;;;;;;;;;;;;-1.44;98.67;98197.81;5095052;28;19956;-74
2023/02/14 03:14:14;;;;;;;;;;;;;;;-1.50;98.45;98182.78;5076978;28;20368;-74
2023/02/14 03:16:46;;;;;;;;;;;;;;;-1.54;98.36;98186.47;5094782;28;19945;-75
2023/02/14 03:22:19;;;;;;;;;;;;;;;-1.67;98.61;98191.56;5094852;28;20399;-74
2023/02/14 03:24:50;;;;;;;;;;;;;;;-1.72;98.68;98188.47;5094579;28;19946;-74
2023/02/14 03:27:37;;;;;;;;;;;;;;;-1.75;99.11;98188.66;5094814;28;19945;-75
2023/02/14 03:30:22;;;;;;;;;;;;;;;-1.78;99.14;98183.72;5094893;28;19945;-75
2023/02/14 03:32:57;;;;;;;;;;;;;;;-1.80;99.16;98193.28;5094734;28;20411;-75
2023/02/14 03:35:39;;;;;;;;;;;;;;;-1.81;99.38;98191.63;5094591;28;19957;-75
2023/02/14 03:38:16;;;;;;;;;;;;;;;-1.80;99.46;98193.28;5094638;28;20018;-74
2023/02/14 03:40:48;;;;;;;;;;;;;;;-1.82;98.99;98189.97;5094713;28;19952;-74
2023/02/14 03:43:27;;;;;;;;;;;;;;;-1.82;99.72;98194.31;5094444;28;20454;-74
2023/02/14 03:45:59;;;;;;;;;;;;;;;-1.85;99.63;98197.88;5094384;28;19955;-75
2023/02/14 03:48:26;;;;;;;;;;;;;;;-1.88;99.88;98198.09;5094908;28;20317;-74
2023/02/14 03:50:52;;;;;;;;;;;;;;;-1.89;100.00;98193.84;5094466;28;19959;-74
2023/02/14 03:53:21;;;;;;;;;;;;;;;-1.92;99.57;98189.72;5094112;28;19950;-74
2023/02/14 03:55:53;;;;;;;;;;;;;;;-1.94;99.77;98190.75;5093987;28;19968;-74
2023/02/14 03:58:27;;;;;;;;;;;;;;;-1.97;99.56;98186.63;5094220;28;19943;-75
2023/02/14 04:00:57;;;;;;;;;;;;;;;-1.98;99.10;98192.69;5094011;28;19953;-74
2023/02/14 04:03:24;;;;;;;;;;;;;;;-1.98;99.34;98190.09;5093541;28;19949;-74
2023/02/14 04:05:51;;;;;;;;;;;;;;;-1.99;99.47;98192.81;5093721;28;19963;-74
2023/02/14 04:08:21;;;;;;;;;;;;;;;-2.00;99.28;98186.00;5093782;28;19951;-75
2023/02/14 04:10:47;;;;;;;;;;;;;;;-1.99;99.50;98185.09;5093634;28;20398;-74
2023/02/14 04:13:13;;;;;;;;;;;;;;;-2.00;99.28;98180.84;5094238;28;20335;-75
2023/02/14 04:15:39;;;;;;;;;;;;;;;-2.01;99.02;98174.88;5093683;28;19968;-74
2023/02/14 04:20:49;;;;;;;;;;;;;;;-2.02;98.09;98177.53;5093491;28;19953;-75
2023/02/14 04:23:15;;;;;;;;;;;;;;;-2.05;98.54;98176.00;5093717;28;19953;-75
2023/02/14 04:25:41;;;;;;;;;;;;;;;-2.07;98.46;98170.94;5093928;28;20471;-75
2023/02/14 04:28:08;;;;;;;;;;;;;;;-2.07;98.21;98177.84;5075814;28;20399;-75
2023/02/14 04:30:34;;;;;;;;;;;;;;;-2.08;98.07;98179.59;5093887;28;19958;-75
2023/02/14 04:33:00;;;;;;;;;;;;;;;-2.06;97.74;98182.03;5093706;28;20043;-75
2023/02/14 04:35:25;;;;;;;;;;;;;;;-2.07;98.00;98178.66;5093679;28;19956;-75
2023/02/14 04:37:51;;;;;;;;;;;;;;;-2.07;97.96;98180.41;5093847;28;19981;-75
2023/02/14 04:40:17;;;;;;;;;;;;;;;-2.09;97.83;98171.97;5093926;28;19991;-75
2023/02/14 04:42:44;;;;;;;;;;;;;;;-2.10;97.66;98183.16;5093444;28;19984;-75
2023/02/14 04:45:10;;;;;;;;;;;;;;;-2.11;97.33;98176.38;5075696;28;19945;-74
2023/02/14 04:47:36;;;;;;;;;;;;;;;-2.11;97.47;98173.81;5093579;28;20081;-75
2023/02/14 04:50:02;;;;;;;;;;;;;;;-2.14;97.54;98177.41;5093222;28;19949;-74
2023/02/14 04:52:28;;;;;;;;;;;;;;;-2.17;97.47;98180.16;5092817;28;19955;-74
2023/02/14 04:54:53;;;;;;;;;;;;;;;-2.18;97.93;98172.53;5075308;28;20039;-75
2023/02/14 04:57:19;;;;;;;;;;;;;;;-2.21;97.60;98168.41;5093442;28;20398;-74
2023/02/14 04:59:45;;;;;;;;;;;;;;;-2.23;97.63;98172.00;5093645;28;19951;-74
2023/02/14 05:02:11;;;;;;;;;;;;;;;-2.25;97.85;98175.50;5093226;28;19951;-75
2023/02/14 05:04:37;;;;;;;;;;;;;;;-2.25;97.26;98175.50;5093135;28;20462;-74
2023/02/14 05:07:03;;;;;;;;;;;;;;;-2.27;97.58;98177.34;5093460;28;20019;-74
2023/02/14 05:09:29;;;;;;;;;;;;;;;-2.28;97.43;98172.28;5093182;28;19950;-74
2023/02/14 05:11:55;;;;;;;;;;;;;;;-2.28;97.40;98178.25;5093512;28;19950;-74
2023/02/14 05:14:20;;;;;;;;;;;;;;;-2.28;97.94;98177.44;5093455;28;20033;-74
2023/02/14 05:16:46;;;;;;;;;;;;;;;-2.29;97.76;98183.47;5096940;28;19968;-74
2023/02/14 05:19:12;;;;;;;;;;;;;;;-2.28;98.33;98177.44;5096861;28;20004;-74
2023/02/14 05:21:38;;;;;;;;;;;;;;;-2.29;98.54;98175.75;5097593;28;19953;-74
2023/02/14 05:24:04;;;;;;;;;;;;;;;-2.29;98.72;98178.34;5097106;28;20006;-74
2023/02/14 05:26:30;;;;;;;;;;;;;;;-2.31;99.09;98173.31;5097318;28;20007;-74
2023/02/14 05:28:56;;;;;;;;;;;;;;;-2.31;98.94;98172.47;5096807;28;19956;-74
2023/02/14 05:31:22;;;;;;;;;;;;;;;-2.34;99.29;98172.66;5097065;28;19956;-74
2023/02/14 05:33:48;;;;;;;;;;;;;;;-2.35;99.63;98174.41;5096595;28;19957;-75
2023/02/14 05:36:14;;;;;;;;;;;;;;;-2.32;99.40;98186.25;5096778;28;19962;-76
2023/02/14 05:38:39;;;;;;;;;;;;;;;-2.35;98.82;98171.84;5096545;28;19973;-74
2023/02/14 05:41:05;;;;;;;;;;;;;;;-2.35;98.90;98179.56;5096409;28;19952;-74
2023/02/14 05:43:31;;;;;;;;;;;;;;;-2.37;99.38;98177.97;5096401;28;20435;-75
2023/02/14 05:45:57;;;;;;;;;;;;;;;-2.38;99.23;98189.19;5096669;28;20037;-74
2023/02/14 05:48:24;;;;;;;;;;;;;;;-2.39;98.87;98192.66;5096547;28;19959;-75
2023/02/14 05:50:49;;;;;;;;;;;;;;;-2.41;99.09;98190.22;5079459;28;19952;-74
2023/02/14 05:53:16;;;;;;;;;;;;;;;-2.42;98.65;98187.72;5096436;28;19947;-74
2023/02/14 05:55:41;;;;;;;;;;;;;;;-2.42;99.06;98205.69;5096425;28;19974;-75
2023/02/14 05:58:07;;;;;;;;;;;;;;;-2.41;100.00;98204.81;5096485;28;19953;-74
2023/02/14 06:00:33;;;;;;;;;;;;;;;-2.40;100.00;98207.25;5096278;28;19945;-74
2023/02/14 06:02:59;;;;;;;;;;;;;;;-2.39;100.00;98203.78;5096032;28;20031;-74
2023/02/14 06:05:25;;;;;;;;;;;;;;;-2.37;100.00;98209.66;5095600;28;20312;-74
2023/02/14 06:07:52;;;;;;;;;;;;;;;-2.36;100.00;98210.47;5096352;28;20333;-74
2023/02/14 06:10:18;;;;;;;;;;;;;;;-2.34;100.00;98216.34;5096140;28;19951;-75
2023/02/14 06:12:45;;;;;;;;;;;;;;;-2.33;100.00;98213.69;5077775;28;19960;-75
2023/02/14 06:15:11;;;;;;;;;;;;;;;-2.32;100.00;98215.31;5095499;28;19969;-74
2023/02/14 06:17:36;;;;;;;;;;;;;;;-2.32;100.00;98215.31;5095931;28;19950;-74
2023/02/14 06:20:02;;;;;;;;;;;;;;;-2.32;100.00;98215.31;5095792;28;19946;-74
2023/02/14 06:22:28;;;;;;;;;;;;;;;-2.33;100.00;98205.13;5095863;28;20317;-74
2023/02/14 06:24:54;;;;;;;;;;;;;;;-2.34;100.00;98206.88;5095811;28;20034;-74
2023/02/14 06:27:20;;;;;;;;;;;;;;;-2.34;100.00;98213.78;5095695;28;20003;-74
2023/02/14 06:29:46;;;;;;;;;;;;;;;-2.34;100.00;98217.16;5095923;28;19952;-74
2023/02/14 06:32:12;;;;;;;;;;;;;;;-2.35;100.00;98223.25;5095323;28;19949;-74
2023/02/14 06:34:39;;;;;;;;;;;;;;;-2.36;100.00;98219.00;5095429;28;19958;-74
2023/02/14 06:37:06;;;;;;;;;;;;;;;-2.37;100.00;98214.78;5095560;28;19960;-74
2023/02/14 06:39:32;;;;;;;;;;;;;;;-2.38;100.00;98213.13;5095701;28;19956;-76
2023/02/14 06:41:58;;;;;;;;;;;;;;;-2.37;100.00;98216.50;5095311;28;19948;-75
2023/02/14 06:44:23;;;;;;;;;;;;;;;-2.38;100.00;98208.00;5095789;28;19942;-75
2023/02/14 06:46:49;;;;;;;;;;;;;;;-2.36;100.00;98218.19;5095293;28;19992;-75
2023/02/14 06:49:15;;;;;;;;;;;;;;;-2.37;100.00;98219.94;5077192;28;19960;-75
2023/02/14 06:51:41;;;;;;;;;;;;;;;-2.36;100.00;98218.19;5094973;28;19948;-74
2023/02/14 06:54:07;;;;;;;;;;;;;;;-2.38;100.00;98222.59;5077074;28;20395;-74
2023/02/14 06:56:33;;;;;;;;;;;;;;;-2.37;100.00;98217.38;5077437;28;19961;-75
2023/02/14 06:58:59;;;;;;;;;;;;;;;-2.33;100.00;98223.97;5094902;28;20002;-74
2023/02/14 07:01:24;;;;;;;;;;;;;;;-2.29;100.00;98224.59;5095179;28;20031;-75
2023/02/14 07:03:50;;;;;;;;;;;;;;;-2.22;100.00;98217.34;5094916;28;19946;-75
2023/02/14 07:06:16;;;;;;;;;;;;;;;-2.14;100.00;98217.69;5095411;28;19992;-75
2023/02/14 07:08:42;;;;;;;;;;;;;;;-1.99;100.00;98210.78;5095530;28;19958;-75
2023/02/14 07:11:08;;;;;;;;;;;;;;;-1.78;99.48;98206.88;5077170;28;20045;-75
2023/02/14 07:13:34;;;;;;;;;;;;;;;-1.49;99.24;98204.16;5094950;28;19959;-75
2023/02/14 07:16:00;;;;;;;;;;;;;;;-1.26;98.28;98193.22;5094683;28;20012;-75
2023/02/14 07:18:26;;;;;;;;;;;;;;;-1.18;97.90;98197.84;5095198;28;19944;-75
2023/02/14 07:20:51;;;;;;;;;;;;;;;-1.15;97.92;98195.09;5094995;28;19947;-76
2023/02/14 07:23:17;;;;;;;;;;;;;;;-1.13;98.07;98197.59;5094826;28;19949;-76
2023/02/14 07:25:43;;;;;;;;;;;;;;;-1.08;98.51;98205.81;5095034;28;19960;-76
2023/02/14 07:28:09;;;;;;;;;;;;;;;-0.96;98.40;98193.88;5094579;28;19973;-76
2023/02/14 07:30:35;;;;;;;;;;;;;;;-0.80;97.95;98202.22;5094523;28;20003;-76
2023/02/14 07:33:01;;;;;;;;;;;;;;;-0.55;97.61;98185.91;5094621;28;20405;-77
2023/02/14 07:35:27;;;;;;;;;;;;;;;-0.22;96.68;98182.78;5094278;28;19966;-76
2023/02/14 07:37:53;;;;;;;;;;;;;;;0.07;95.26;98171.34;5094006;28;19948;-76
2023/02/14 07:40:19;;;;;;;;;;;;;;;0.44;94.11;98159.19;5076448;28;19944;-75
2023/02/14 07:42:51;;;;;;;;;;;;;;;0.90;92.65;98152.38;5093909;28;19977;-75
2023/02/14 07:45:17;;;;;;;;;;;;;;;1.37;90.92;98146.22;5093231;28;19953;-75
2023/02/14 07:47:43;;;;;;;;;;;;;;;1.72;89.17;98119.41;5094058;28;19958;-75
2023/02/14 07:50:09;;;;;;;;;;;;;;;2.02;88.72;98120.50;5094374;28;19941;-75
2023/02/14 07:52:34;;;;;;;;;;;;;;;2.32;88.43;98106.84;5076666;28;19991;-76
2023/02/14 07:55:00;;;;;;;;;;;;;;;2.55;86.69;98102.38;5094220;28;20014;-76
2023/02/14 07:57:26;;;;;;;;;;;;;;;2.75;85.97;98103.31;5094126;28;20441;-77
2023/02/14 07:59:52;;;;;;;;;;;;;;;2.93;85.50;98092.38;5094655;28;19956;-74
2023/02/14 08:02:19;;;;;;;;;;;;;;;2.95;84.88;98090.47;5076315;28;19954;-75
2023/02/14 08:04:45;;;;;;;;;;;;;;;3.07;85.31;98094.63;5094308;28;19946;-75
2023/02/14 08:07:11;;;;;;;;;;;;;;;3.20;84.82;98084.84;5093427;28;19954;-74
2023/02/14 08:09:37;;;;;;;;;;;;;;;3.29;84.02;98083.22;5075694;28;20019;-75
2023/02/14 08:14:47;;;;;;;;;;;;;;;3.28;86.10;98102.34;5094139;28;19963;-74
2023/02/14 08:17:13;;;;;;;;;;;;;;;3.49;89.65;98128.22;5093607;28;19956;-75
2023/02/14 08:19:39;;;;;;;;;;;;;;;3.74;88.88;98126.94;5093699;28;19956;-75
2023/02/14 08:22:05;;;;;;;;;;;;;;;3.95;85.89;98102.63;5093753;28;19953;-75
2023/02/14 08:24:31;;;;;;;;;;;;;;;4.20;89.04;98124.66;5093465;28;19959;-75
2023/02/14 08:26:57;;;;;;;;;;;;;;;4.48;87.21;98108.25;5093695;28;19990;-74
2023/02/14 08:29:23;;;;;;;;;;;;;;;4.64;83.41;98075.66;5093449;28;20326;-75
2023/02/14 08:31:49;;;;;;;;;;;;;;;4.75;82.61;98069.50;5093640;28;19954;-74
2023/02/14 08:34:15;;;;;;;;;;;;;;;4.85;82.24;98060.72;5093828;28;20009;-75
2023/02/14 08:36:41;;;;;;;;;;;;;;;4.98;80.73;98047.41;5093402;28;20411;-74
2023/02/14 08:39:07;;;;;;;;;;;;;;;5.03;80.92;98055.59;5093237;28;19969;-75
2023/02/14 08:41:34;;;;;;;;;;;;;;;5.04;79.21;98043.41;5093200;28;20302;-75
2023/02/14 08:44:00;;;;;;;;;;;;;;;5.01;79.03;98041.09;5093815;28;20457;-75
2023/02/14 08:46:27;;;;;;;;;;;;;;;5.07;80.86;98061.31;5093452;28;19952;-75
2023/02/14 08:48:53;;;;;;;;;;;;;;;5.11;79.43;98043.66;5079923;28;19961;-75
2023/02/14 08:51:21;;;;;;;;;;;;;;;5.00;82.98;98074.09;5097153;28;20296;-75
2023/02/14 08:53:50;;;;;;;;;;;;;;;5.04;81.59;98057.25;5097689;28;20405;-75
2023/02/14 08:56:17;;;;;;;;;;;;;;;4.83;80.25;98049.66;5097254;28;19967;-74
2023/02/14 08:58:43;;;;;;;;;;;;;;;4.81;83.02;98076.75;5097366;28;19964;-75
2023/02/14 09:01:10;;;;;;;;;;;;;;;4.82;83.73;98086.19;5097407;28;19958;-75
2023/02/14 09:03:36;;;;;;;;;;;;;;;4.94;82.42;98077.25;5097255;28;19946;-75
2023/02/14 09:06:05;;;;;;;;;;;;;;;5.08;81.16;98058.59;5079010;28;19955;-75
2023/02/14 09:08:33;;;;;;;;;;;;;;;5.03;80.13;98047.78;5097556;28;20309;-75
2023/02/14 09:11:07;;;;;;;;;;;;;;;5.01;80.69;98059.28;5097127;28;19954;-75
2023/02/14 09:13:33;;;;;;;;;;;;;;;5.05;81.64;98071.06;5079236;28;19956;-75
2023/02/14 09:16:02;;;;;;;;;;;;;;;5.14;81.33;98069.38;5097158;28;19963;-75
2023/02/14 09:18:28;;;;;;;;;;;;;;;5.11;79.43;98043.66;5078893;28;19944;-75
2023/02/14 09:20:53;;;;;;;;;;;;;;;5.13;79.74;98041.75;5097088;28;20281;-75
2023/02/14 09:23:19;;;;;;;;;;;;;;;5.03;78.98;98036.56;5097034;28;20018;-75
2023/02/14 09:25:45;;;;;;;;;;;;;;;4.86;80.30;98051.94;5097578;28;19955;-75
2023/02/14 09:28:11;;;;;;;;;;;;;;;4.82;80.06;98050.59;5097037;28;19977;-76
2023/02/14 09:30:37;;;;;;;;;;;;;;;4.74;79.33;98039.28;5078987;28;19957;-75
2023/02/14 09:33:04;;;;;;;;;;;;;;;4.60;81.38;98059.56;5097002;28;19949;-75
2023/02/14 09:35:30;;;;;;;;;;;;;;;4.60;80.25;98046.56;5096793;28;19971;-76
2023/02/14 09:40:41;;;;;;;;;;;;;;;4.56;81.39;98054.78;5097343;28;19953;-75
2023/02/14 09:43:29;;;;;;;;;;;;;;;4.32;81.26;98057.81;5096167;28;19982;-76
2023/02/14 09:45:57;;;;;;;;;;;;;;;4.25;84.83;98084.34;5086940;28;19962;-76
2023/02/14 09:48:32;;;;;;;;;;;;;;;4.45;84.81;98089.50;5095300;28;20423;-75
2023/02/14 09:51:01;;;;;;;;;;;;;;;4.63;84.70;98079.25;5095334;28;19964;-75
2023/02/14 09:53:29;;;;;;;;;;;;;;;4.81;84.74;98071.56;5077169;28;19948;-75
2023/02/14 09:55:57;;;;;;;;;;;;;;;5.00;85.10;98074.09;5095304;28;19960;-76
2023/02/14 09:58:29;;;;;;;;;;;;;;;5.12;80.77;98032.28;5095410;28;19952;-75
2023/02/14 10:01:08;;;;;;;;;;;;;;;5.08;81.49;98036.94;5094321;28;19951;-77
2023/02/14 10:03:50;;;;;;;;;;;;;;;5.09;84.17;98072.41;5095511;28;19956;-76
2023/02/14 10:06:36;;;;;;;;;;;;;;;5.07;81.00;98025.72;5086612;28;19948;-76
2023/02/14 10:09:13;;;;;;;;;;;;;;;5.14;83.20;98043.38;5094958;28;19951;-76
2023/02/14 10:11:39;;;;;;;;;;;;;;;5.18;81.06;98026.50;5095032;28;19953;-76
2023/02/14 10:14:15;;;;;;;;;;;;;;;5.19;83.28;98051.56;5094941;28;19950;-75
2023/02/14 10:16:46;;;;;;;;;;;;;;;5.22;83.23;98046.06;5094793;28;20336;-75
2023/02/14 10:19:33;;;;;;;;;;;;;;;5.32;82.33;98031.22;5094838;28;19946;-76
2023/02/14 10:22:20;;;;;;;;;;;;;;;5.58;84.58;98052.16;5094885;28;20427;-77
2023/02/14 10:24:54;;;;;;;;;;;;;;;5.81;81.52;98013.50;5095123;28;19948;-75
2023/02/14 10:27:38;;;;;;;;;;;;;;;5.82;81.04;98006.53;5094310;28;19942;-76
2023/02/14 10:30:15;;;;;;;;;;;;;;;5.80;79.56;97998.88;5076420;28;19947;-76
2023/02/14 10:33:04;;;;;;;;;;;;;;;5.68;80.25;98002.66;5095209;28;19945;-76
2023/02/14 10:35:49;;;;;;;;;;;;;;;5.73;81.29;98008.22;5081080;28;19962;-75
2023/02/14 10:38:41;;;;;;;;;;;;;;;5.95;81.84;98017.41;5076429;28;19948;-75
2023/02/14 10:41:26;;;;;;;;;;;;;;;6.00;79.78;97993.53;5094551;28;20412;-76
2023/02/14 10:44:16;;;;;;;;;;;;;;;6.17;78.55;97979.66;5031237;28;1794970;-76
2023/02/14 10:46:48;;;;;;;;;;;;;;;6.24;80.08;97991.13;5095622;28;20404;-76
2023/02/14 10:49:24;;;;;;;;;;;;;;;6.35;81.07;98002.25;5095800;28;19949;-75
2023/02/14 10:52:06;;;;;;;;;;;;;;;6.45;78.91;97977.72;5085322;28;19945;-75
2023/02/14 10:54:37;;;;;;;;;;;;;;;6.61;80.54;97989.22;5095247;28;19957;-76
2023/02/14 10:57:13;;;;;;;;;;;;;;;6.79;80.38;97978.72;5095567;28;20307;-75
2023/02/14 10:59:57;;;;;;;;;;;;;;;6.89;77.75;97945.53;5095655;28;20400;-75
2023/02/14 11:02:26;;;;;;;;;;;;;;;6.93;79.56;97964.28;5085939;28;19947;-75
2023/02/14 11:04:52;;;;;;;;;;;;;;;6.95;80.48;97962.31;5095168;28;19950;-78
2023/02/14 11:07:20;;;;;;;;;;;;;;;6.96;78.47;97948.31;5095019;28;19948;-76
2023/02/14 11:09:46;;;;;;;;;;;;;;;6.96;77.43;97938.69;5095069;28;19945;-75
2023/02/14 11:12:29;;;;;;;;;;;;;;;6.93;75.87;97925.16;5094392;28;19947;-76
2023/02/14 11:15:07;;;;;;;;;;;;;;;7.01;80.95;97953.88;5076847;28;19954;-76
2023/02/14 11:17:34;;;;;;;;;;;;;;;7.09;77.81;97940.84;5094905;28;20320;-75
2023/02/14 11:20:06;;;;;;;;;;;;;;;7.20;76.17;97911.88;5094866;28;19948;-75
2023/02/14 11:22:33;;;;;;;;;;;;;;;7.28;77.97;97929.31;5095374;28;19958;-74
2023/02/14 11:25:16;;;;;;;;;;;;;;;7.50;76.77;97915.66;5094707;28;19954;-75
2023/02/14 11:27:48;;;;;;;;;;;;;;;7.83;77.65;97920.06;5094325;28;19953;-75
2023/02/14 11:30:21;;;;;;;;;;;;;;;8.07;73.85;97890.50;5093813;28;19965;-75
2023/02/14 11:32:53;;;;;;;;;;;;;;;8.27;72.70;97865.63;5093948;28;20307;-75
2023/02/14 11:35:23;;;;;;;;;;;;;;;8.51;74.61;97879.63;5093758;28;20306;-76
2023/02/14 11:37:51;;;;;;;;;;;;;;;8.71;71.32;97840.78;5094484;28;19957;-76
2023/02/14 11:40:28;;;;;;;;;;;;;;;8.88;73.58;97859.84;5094348;28;19956;-76
2023/02/14 11:42:56;;;;;;;;;;;;;;;9.00;72.01;97848.00;5094837;28;19978;-75
2023/02/14 11:45:27;;;;;;;;;;;;;;;9.23;71.39;97842.78;5076542;28;19960;-76
2023/02/14 11:48:12;;;;;;;;;;;;;;;9.16;69.74;97833.19;5094286;28;20397;-76
2023/02/14 11:50:38;;;;;;;;;;;;;;;8.98;69.14;97818.56;5080185;28;19955;-76
2023/02/14 11:53:04;;;;;;;;;;;;;;;8.98;70.82;97836.88;5094385;28;19959;-76
2023/02/14 11:55:33;;;;;;;;;;;;;;;9.00;72.57;97855.84;5094238;28;19956;-76
2023/02/14 11:58:01;;;;;;;;;;;;;;;9.12;70.30;97832.72;5094012;28;20566;-76
2023/02/14 12:00:29;;;;;;;;;;;;;;;9.25;71.16;97845.22;5094266;28;20394;-76
2023/02/14 12:02:57;;;;;;;;;;;;;;;9.23;68.22;97813.97;5094055;28;19952;-76
2023/02/14 12:05:23;;;;;;;;;;;;;;;9.32;70.66;97835.66;5093963;28;19947;-76
2023/02/14 12:07:51;;;;;;;;;;;;;;;9.47;70.92;97839.16;5094134;28;20295;-76
2023/02/14 12:10:19;;;;;;;;;;;;;;;9.47;67.40;97797.25;5094126;28;19949;-76
2023/02/14 12:12:49;;;;;;;;;;;;;;;9.47;69.46;97825.22;5094048;28;19950;-76
2023/02/14 12:15:24;;;;;;;;;;;;;;;9.47;71.94;97835.72;5094108;28;19964;-76
2023/02/14 12:18:08;;;;;;;;;;;;;;;9.40;69.70;97826.94;5093788;28;19949;-77
2023/02/14 12:20:39;;;;;;;;;;;;;;;9.39;68.85;97809.63;5093976;28;19950;-76
2023/02/14 12:23:37;;;;;;;;;;;;;;;9.47;69.57;97805.13;5094127;28;19962;-76
2023/02/14 12:26:11;;;;;;;;;;;;;;;9.52;70.47;97815.88;5036798;28;19969;-76
2023/02/14 12:28:44;;;;;;;;;;;;;;;9.56;69.84;97816.34;5093712;28;19945;-76
2023/02/14 12:31:11;;;;;;;;;;;;;;;9.55;68.64;97794.56;5094050;28;19953;-76
2023/02/14 12:33:38;;;;;;;;;;;;;;;9.60;71.90;97820.22;5093536;28;19959;-76
2023/02/14 12:36:15;;;;;;;;;;;;;;;9.65;70.12;97801.34;5093609;28;19973;-76
2023/02/14 12:38:59;;;;;;;;;;;;;;;9.70;71.35;97810.31;5093597;28;19959;-77
2023/02/14 12:41:28;;;;;;;;;;;;;;;9.62;69.07;97793.88;5094247;28;19952;-76
2023/02/14 12:43:55;;;;;;;;;;;;;;;9.58;69.14;97792.59;5093560;28;20327;-76
2023/02/14 12:46:24;;;;;;;;;;;;;;;9.61;71.39;97818.41;5093939;28;19958;-76
2023/02/14 12:49:02;;;;;;;;;;;;;;;9.68;71.63;97806.22;5093614;28;19949;-76
2023/02/14 12:51:33;;;;;;;;;;;;;;;9.81;69.49;97784.69;5093488;28;19958;-76
2023/02/14 12:54:03;;;;;;;;;;;;;;;9.86;69.62;97790.19;5094061;28;19954;-76
2023/02/14 12:56:40;;;;;;;;;;;;;;;9.93;68.25;97773.56;5093803;28;19968;-76
2023/02/14 12:59:27;;;;;;;;;;;;;;;10.00;69.99;97783.31;5093837;28;19951;-76
2023/02/14 13:02:02;;;;;;;;;;;;;;;10.00;69.66;97784.13;5093756;28;19946;-76
2023/02/14 13:04:37;;;;;;;;;;;;;;;10.03;70.39;97786.38;5093286;28;19943;-76
2023/02/14 13:07:09;;;;;;;;;;;;;;;10.12;70.67;97781.84;5093627;28;19950;-76
2023/02/14 13:09:53;;;;;;;;;;;;;;;10.20;68.81;97763.41;5093410;28;19951;-76
2023/02/14 13:12:22;;;;;;;;;;;;;;;10.28;70.06;97780.84;5075149;28;19949;-76
2023/02/14 13:15:07;;;;;;;;;;;;;;;10.33;67.71;97745.25;5093437;28;19952;-76
2023/02/14 13:17:41;;;;;;;;;;;;;;;10.34;68.36;97759.19;5093246;28;19964;-76
2023/02/14 13:20:26;;;;;;;;;;;;;;;10.37;69.47;97761.41;5093791;28;19951;-76
2023/02/14 13:22:53;;;;;;;;;;;;;;;10.48;68.29;97765.41;5093054;28;19974;-76